Fritch, TX (79036)

5:51 AM CDT on October 24, 2014 (GMT -0500)
KTXFRITC2 | Change Station
CLOSE
Current Station
Personal Weather Station
Location: Fritch, TX
Elevation: 3160 ft
Nearby Weather Stations

Elev 3160 ft 35.64 °N, 101.60 °W | Updated 1 second ago

Clear
Clear
54.0 °F
Feels Like 54.0 °F
N
2.0
Wind Variable Wind from South
Gusts 3.8 mph

Today
High -- | Low -- °F
--% Chance of Precip.
Yesterday
High -- | Low -- °F
Precip. -- in
8:00 AM 6:59 PM
New Moon, 0% visible
Pressure 30.00 in
Visibility 8.0 miles
Clouds Clear
Dew Point 53 °F
Humidity 95%
Rainfall 0.00 in
Snow Depth Not available.
UV 0 out of 12
Pollen 4.90 out of 12
Air Quality Not available.
Flu Activity Sporadic
METAR KBGD 240951Z AUTO 21005KT 8SM CLR 14/12 A3010 RMK AO2 SLP159 T01390122

More Conditions Fewer Conditions

Pressure 30.00 in
Visibility 8.0 miles
Clouds Clear
Dew Point 53 °F
Humidity 95%
Rainfall 0.00 in
Snow Depth Not available.
UV 0 out of 12
Pollen 4.90 out of 12
Air Quality Not available.
Flu Activity Sporadic
METAR KBGD 240951Z AUTO 21005KT 8SM CLR 14/12 A3010 RMK AO2 SLP159 T01390122

More Conditions Fewer Conditions

10-Day Weather Forecast

Almanac

Astronomy

Oct. 24, 2014 Rise Set
Actual Time 8:00 AM CDT 6:59 PM CDT
Civil Twilight 7:34 AM CDT 7:25 PM CDT
Nautical Twilight 7:04 AM CDT 7:55 PM CDT
Astronomical Twilight 6:35 AM CDT 8:25 PM CDT
Moon 8:40 AM CDT 7:42 PM CDT
Length of Visible Light 11h 50m
Length of Day
10h 58m
Tomorrow will be 2m 4s shorter.
New Moon, 0% of the Moon is Illuminated
Today
New Moon
Oct 30
First Quarter
Nov 6
Full
Nov 14
Last Quarter
Nov 22
New

Today's Extremes

State Highs State Lows

Community

WunderPhotos

Upload Photos

1,764,516 photos uploaded!

WunderBlogs® & News

Nearby

Snow Depth

Station Depth Elevation
No new snow has been reported.

Earthquake Activity

City Distance Mag. Time & Date
No recent earthquake activity has been reported nearby.
Minimum magnitude displayed is 2.5.

Coastal Water Temperatures

Place Temperature
No Stations Reporting

Nearby Weather Stations